Terminal Aerodrome Forecast
Issued by NWS Cleveland, OH

Home | Current Version | Previous Version | Text Only | Print | Product List | Glossary Off
Versions: 1 2 3 4 5 6 7 8 9 10 11 12 13 14 15 16

000
FTUS41 KCLE 161132
TAFMFD
TAF
KMFD 161132Z 1612/1712 25007KT P6SM -SN OVC015
     FM161800 24009KT P6SM BKN030
     FM170200 25006KT P6SM BKN015=

USA.gov is the U.S. government's official web portal to all federal, state and local government web resources and services.